Time;durP1;ratioP1;P1;durP2;ratioP2;P2;SDS_P1;SDS_P2;PMS_P1;PMS_P2;Temp;Humidity;BMP_temperature;BMP_pressure;BME280_temperature;BME280_humidity;BME280_pressure;Samples;Min_cycle;Max_cycle;Signal;HPM_P1;HPM_P2
2024/03/30 00:02:23;;;;;;;56.47;6.88;;;;;;;;;;4932269;29;20046;-66
2024/03/30 00:04:49;;;;;;;60.63;7.00;;;;;;;;;;4933790;29;20043;-66
2024/03/30 00:07:15;;;;;;;54.00;7.60;;;;;;;;;;4933091;29;20058;-66
2024/03/30 00:09:41;;;;;;;61.65;6.70;;;;;;;;;;4932595;29;20047;-66
2024/03/30 00:12:07;;;;;;;57.10;5.57;;;;;;;;;;4947548;28;20031;-66
2024/03/30 00:14:34;;;;;;;54.33;6.35;;;;;;;;;;4934489;28;20637;-66
2024/03/30 00:17:00;;;;;;;56.58;6.57;;;;;;;;;;4931753;29;20041;-66
2024/03/30 00:19:26;;;;;;;66.75;7.47;;;;;;;;;;4932760;29;20055;-65
2024/03/30 00:21:52;;;;;;;58.55;7.90;;;;;;;;;;4933957;29;20043;-66
2024/03/30 00:24:18;;;;;;;62.78;7.28;;;;;;;;;;4933714;29;20055;-66
2024/03/30 00:26:44;;;;;;;65.82;7.68;;;;;;;;;;4953636;28;20046;-66
2024/03/30 00:29:10;;;;;;;74.63;6.53;;;;;;;;;;4936533;28;20054;-65
2024/03/30 00:31:36;;;;;;;74.82;8.10;;;;;;;;;;4933669;29;20534;-66
2024/03/30 00:34:02;;;;;;;68.60;7.07;;;;;;;;;;4938285;28;20430;-65
2024/03/30 00:36:28;;;;;;;55.38;6.05;;;;;;;;;;4932870;29;20524;-65
2024/03/30 00:38:55;;;;;;;71.72;7.10;;;;;;;;;;4946808;29;20893;-65
2024/03/30 00:41:21;;;;;;;59.63;6.50;;;;;;;;;;4947528;28;20042;-66
2024/03/30 00:43:47;;;;;;;56.45;8.98;;;;;;;;;;4929805;29;20051;-65
2024/03/30 00:46:13;;;;;;;80.95;7.60;;;;;;;;;;4933404;29;20056;-65
2024/03/30 00:48:39;;;;;;;50.67;5.88;;;;;;;;;;4934186;29;20506;-67
2024/03/30 00:51:05;;;;;;;56.88;6.43;;;;;;;;;;4934434;28;20044;-66
2024/03/30 00:53:31;;;;;;;69.80;6.55;;;;;;;;;;4934572;29;20050;-66
2024/03/30 00:55:59;;;;;;;61.45;7.10;;;;;;;;;;4936592;29;20128;-66
2024/03/30 00:58:25;;;;;;;51.58;6.10;;;;;;;;;;4929619;29;20046;-66
2024/03/30 01:00:52;;;;;;;42.35;5.85;;;;;;;;;;4934492;29;20463;-65
2024/03/30 01:03:18;;;;;;;58.78;5.82;;;;;;;;;;4931592;29;20380;-66
2024/03/30 01:05:44;;;;;;;49.30;5.53;;;;;;;;;;4932067;29;20407;-65
2024/03/30 01:08:10;;;;;;;53.03;7.28;;;;;;;;;;4932901;29;20044;-65
2024/03/30 01:10:36;;;;;;;49.40;5.97;;;;;;;;;;4930634;29;20487;-66
2024/03/30 01:13:02;;;;;;;54.20;5.63;;;;;;;;;;4933443;29;20527;-65
2024/03/30 01:15:29;;;;;;;44.83;6.03;;;;;;;;;;4935119;29;20535;-65
2024/03/30 01:17:56;;;;;;;56.15;5.57;;;;;;;;;;4934003;29;20125;-65
2024/03/30 01:20:23;;;;;;;48.33;5.65;;;;;;;;;;4931513;29;20400;-65
2024/03/30 01:22:50;;;;;;;46.75;6.35;;;;;;;;;;4929759;29;20050;-66
2024/03/30 01:25:16;;;;;;;64.13;5.97;;;;;;;;;;4946489;29;20524;-66
2024/03/30 01:27:43;;;;;;;54.22;8.48;;;;;;;;;;4934650;29;20483;-65
2024/03/30 01:30:09;;;;;;;41.75;5.07;;;;;;;;;;4917463;29;20043;-65
2024/03/30 01:32:36;;;;;;;46.13;5.63;;;;;;;;;;4934816;29;20048;-65
2024/03/30 01:35:03;;;;;;;42.13;4.88;;;;;;;;;;4946577;28;20372;-66
2024/03/30 01:37:29;;;;;;;53.88;6.15;;;;;;;;;;4946481;28;20404;-65
2024/03/30 01:39:56;;;;;;;43.25;4.97;;;;;;;;;;4946490;28;20056;-65
2024/03/30 01:42:30;;;;;;;38.28;5.57;;;;;;;;;;4932314;29;20043;-65
2024/03/30 01:44:57;;;;;;;43.67;5.13;;;;;;;;;;4931570;29;20051;-66
2024/03/30 01:47:26;;;;;;;42.13;5.05;;;;;;;;;;4925672;29;20043;-66
2024/03/30 01:49:53;;;;;;;42.88;4.63;;;;;;;;;;4931840;28;20048;-66
2024/03/30 01:52:20;;;;;;;45.78;5.28;;;;;;;;;;4943181;28;20052;-66
2024/03/30 01:54:48;;;;;;;43.38;5.03;;;;;;;;;;4933771;29;20046;-65
2024/03/30 01:57:14;;;;;;;41.40;4.07;;;;;;;;;;4932973;29;20040;-66
2024/03/30 01:59:41;;;;;;;35.97;4.82;;;;;;;;;;4934468;28;20056;-65
2024/03/30 02:02:09;;;;;;;28.08;3.15;;;;;;;;;;4946690;29;20376;-65
2024/03/30 02:04:37;;;;;;;37.92;4.32;;;;;;;;;;4932277;28;20067;-64
2024/03/30 02:07:04;;;;;;;34.90;3.55;;;;;;;;;;4931705;29;20054;-65
2024/03/30 02:09:32;;;;;;;35.83;4.88;;;;;;;;;;4931643;29;20052;-65
2024/03/30 02:11:58;;;;;;;28.70;3.78;;;;;;;;;;4932972;29;20054;-65
2024/03/30 02:14:24;;;;;;;33.72;3.85;;;;;;;;;;4930592;29;20040;-64
2024/03/30 02:16:50;;;;;;;35.90;4.15;;;;;;;;;;4934540;29;20049;-65
2024/03/30 02:19:19;;;;;;;34.47;4.22;;;;;;;;;;4934374;29;20047;-64
2024/03/30 02:21:45;;;;;;;29.55;4.18;;;;;;;;;;4937445;29;20043;-65
2024/03/30 02:24:11;;;;;;;31.10;3.42;;;;;;;;;;4936894;29;20471;-66
2024/03/30 02:26:38;;;;;;;31.20;3.60;;;;;;;;;;4935544;28;20052;-65
2024/03/30 02:29:10;;;;;;;33.42;2.97;;;;;;;;;;4938069;28;20039;-66
2024/03/30 02:31:36;;;;;;;36.40;3.10;;;;;;;;;;4938086;29;20055;-65
2024/03/30 02:34:03;;;;;;;34.03;2.92;;;;;;;;;;4938081;29;20047;-66
2024/03/30 02:36:32;;;;;;;30.58;4.28;;;;;;;;;;4935061;29;20047;-66
2024/03/30 02:38:58;;;;;;;30.45;2.83;;;;;;;;;;4949537;28;20039;-66
2024/03/30 02:41:24;;;;;;;22.10;3.03;;;;;;;;;;4935498;29;20038;-66
2024/03/30 02:43:57;;;;;;;25.25;2.92;;;;;;;;;;4935581;29;20427;-65
2024/03/30 02:46:23;;;;;;;29.17;3.38;;;;;;;;;;4933214;29;20059;-66
2024/03/30 02:48:49;;;;;;;28.40;3.05;;;;;;;;;;4935064;29;20046;-66
2024/03/30 02:51:15;;;;;;;25.88;2.25;;;;;;;;;;4933870;29;20371;-65
2024/03/30 02:53:41;;;;;;;19.05;3.30;;;;;;;;;;4937015;29;20053;-65
2024/03/30 02:56:07;;;;;;;20.15;2.70;;;;;;;;;;4933469;29;20032;-65
2024/03/30 02:58:33;;;;;;;23.92;2.70;;;;;;;;;;4937178;29;20051;-65
2024/03/30 03:00:59;;;;;;;33.25;4.13;;;;;;;;;;4937134;29;20050;-65
2024/03/30 03:03:25;;;;;;;19.08;2.47;;;;;;;;;;4934525;29;20035;-66
2024/03/30 03:05:55;;;;;;;23.85;2.92;;;;;;;;;;4952418;28;20048;-66
2024/03/30 03:08:24;;;;;;;20.85;2.40;;;;;;;;;;4932239;29;20078;-67
2024/03/30 03:10:50;;;;;;;21.10;2.30;;;;;;;;;;4930718;29;20064;-66
2024/03/30 03:13:17;;;;;;;23.13;2.40;;;;;;;;;;4935250;29;20085;-66
2024/03/30 03:15:43;;;;;;;24.13;4.45;;;;;;;;;;4936053;28;20511;-66
2024/03/30 03:18:09;;;;;;;15.50;2.40;;;;;;;;;;4936923;29;20047;-66
2024/03/30 03:20:35;;;;;;;23.13;2.30;;;;;;;;;;4934998;29;20043;-66
2024/03/30 03:23:01;;;;;;;26.08;2.97;;;;;;;;;;4952301;28;20039;-66
2024/03/30 03:25:27;;;;;;;28.48;2.60;;;;;;;;;;4934243;29;20468;-67
2024/03/30 03:27:53;;;;;;;18.35;2.22;;;;;;;;;;4946753;29;20047;-66
2024/03/30 03:30:20;;;;;;;27.40;2.88;;;;;;;;;;4934572;29;20404;-67
2024/03/30 03:32:46;;;;;;;20.00;2.38;;;;;;;;;;4943793;29;20043;-67
2024/03/30 03:35:12;;;;;;;18.00;2.30;;;;;;;;;;4932958;29;20050;-66
2024/03/30 03:37:38;;;;;;;19.67;3.05;;;;;;;;;;4932473;29;20488;-67
2024/03/30 03:40:05;;;;;;;21.75;2.65;;;;;;;;;;4931603;29;20046;-66
2024/03/30 03:42:31;;;;;;;20.23;2.15;;;;;;;;;;4930984;29;20043;-67
2024/03/30 03:44:57;;;;;;;20.27;2.45;;;;;;;;;;4934713;29;20388;-67
2024/03/30 03:47:23;;;;;;;18.50;2.25;;;;;;;;;;4933179;29;20028;-67
2024/03/30 03:49:49;;;;;;;26.23;2.58;;;;;;;;;;4931100;29;20044;-66
2024/03/30 03:52:15;;;;;;;17.83;2.10;;;;;;;;;;4929746;29;20039;-66
2024/03/30 03:54:41;;;;;;;18.20;2.17;;;;;;;;;;4934775;29;20047;-67
2024/03/30 03:57:07;;;;;;;18.30;2.80;;;;;;;;;;4936847;29;20064;-67
2024/03/30 03:59:33;;;;;;;18.90;2.30;;;;;;;;;;4931975;29;20376;-67
2024/03/30 04:01:59;;;;;;;19.17;2.80;;;;;;;;;;4947682;28;20503;-66
2024/03/30 04:04:25;;;;;;;24.98;2.90;;;;;;;;;;4936691;29;20433;-67
2024/03/30 04:06:51;;;;;;;24.02;2.53;;;;;;;;;;4935519;29;20460;-67
2024/03/30 04:09:18;;;;;;;23.95;2.40;;;;;;;;;;4932089;29;20075;-66
2024/03/30 04:11:44;;;;;;;18.30;2.10;;;;;;;;;;4948116;28;20385;-67
2024/03/30 04:14:10;;;;;;;31.75;3.60;;;;;;;;;;4933196;29;20032;-68
2024/03/30 04:16:36;;;;;;;26.40;3.75;;;;;;;;;;4947169;29;20055;-67
2024/03/30 04:19:02;;;;;;;22.05;2.42;;;;;;;;;;4934801;29;20356;-66
2024/03/30 04:21:28;;;;;;;22.30;2.75;;;;;;;;;;4931958;29;20119;-66
2024/03/30 04:23:54;;;;;;;14.80;2.17;;;;;;;;;;4949873;29;20380;-67
2024/03/30 04:26:20;;;;;;;19.17;2.88;;;;;;;;;;4936256;28;20057;-67
2024/03/30 04:28:46;;;;;;;17.30;2.38;;;;;;;;;;4933820;29;20050;-66
2024/03/30 04:31:12;;;;;;;26.65;2.92;;;;;;;;;;4934934;29;20047;-66
2024/03/30 04:33:38;;;;;;;26.60;2.55;;;;;;;;;;4934135;29;20062;-68
2024/03/30 04:36:06;;;;;;;21.10;2.38;;;;;;;;;;4932274;29;20035;-66
2024/03/30 04:38:34;;;;;;;31.30;2.28;;;;;;;;;;4947598;28;20062;-67
2024/03/30 04:41:00;;;;;;;29.08;2.80;;;;;;;;;;4931503;29;20047;-66
2024/03/30 04:43:27;;;;;;;17.08;2.47;;;;;;;;;;4931857;29;20040;-67
2024/03/30 04:45:54;;;;;;;25.50;2.53;;;;;;;;;;4946719;28;20043;-65
2024/03/30 04:48:20;;;;;;;18.48;2.80;;;;;;;;;;4932340;29;20150;-67
2024/03/30 04:50:46;;;;;;;20.42;2.30;;;;;;;;;;4932544;29;20066;-67
2024/03/30 04:53:16;;;;;;;26.17;3.00;;;;;;;;;;4935160;29;20048;-66
2024/03/30 04:55:58;;;;;;;20.65;2.28;;;;;;;;;;4935450;29;20050;-67
2024/03/30 04:58:26;;;;;;;20.58;2.92;;;;;;;;;;4928675;29;20139;-66
2024/03/30 05:00:54;;;;;;;23.10;2.65;;;;;;;;;;4933926;29;20027;-66
2024/03/30 05:03:20;;;;;;;19.13;2.45;;;;;;;;;;4929507;29;20059;-67
2024/03/30 05:05:47;;;;;;;27.15;2.65;;;;;;;;;;4946490;28;20054;-67
2024/03/30 05:08:14;;;;;;;19.65;2.25;;;;;;;;;;4933555;28;20061;-66
2024/03/30 05:10:43;;;;;;;20.73;2.20;;;;;;;;;;4930442;29;20063;-66
2024/03/30 05:13:09;;;;;;;18.05;2.22;;;;;;;;;;4934812;28;20046;-66
2024/03/30 05:15:37;;;;;;;26.10;2.40;;;;;;;;;;4948598;28;20578;-66
2024/03/30 05:18:05;;;;;;;21.98;2.67;;;;;;;;;;4931803;29;20051;-66
2024/03/30 05:20:50;;;;;;;24.10;2.55;;;;;;;;;;4933830;29;20052;-66
2024/03/30 05:23:32;;;;;;;25.08;3.10;;;;;;;;;;4931301;28;20063;-66
2024/03/30 05:26:06;;;;;;;22.27;3.47;;;;;;;;;;4931989;29;20050;-66
2024/03/30 05:28:34;;;;;;;23.75;2.97;;;;;;;;;;4934219;29;20054;-65
2024/03/30 05:31:06;;;;;;;26.10;3.58;;;;;;;;;;4930597;29;20443;-66
2024/03/30 05:33:32;;;;;;;23.55;2.60;;;;;;;;;;4931642;29;20043;-67
2024/03/30 05:35:58;;;;;;;23.77;2.75;;;;;;;;;;4934708;29;20063;-65
2024/03/30 05:38:24;;;;;;;22.40;3.63;;;;;;;;;;4933237;29;20036;-66
2024/03/30 05:40:51;;;;;;;19.38;2.40;;;;;;;;;;4930722;29;20031;-66
2024/03/30 05:43:17;;;;;;;29.35;3.75;;;;;;;;;;4933350;28;20051;-66
2024/03/30 05:45:47;;;;;;;25.17;3.00;;;;;;;;;;4932848;28;20424;-66
2024/03/30 05:48:13;;;;;;;24.50;3.10;;;;;;;;;;4934814;29;20044;-66
2024/03/30 05:50:40;;;;;;;24.13;2.67;;;;;;;;;;4935525;29;20142;-67
2024/03/30 05:53:06;;;;;;;24.38;3.15;;;;;;;;;;4935392;29;20400;-66
2024/03/30 05:55:32;;;;;;;29.55;3.05;;;;;;;;;;4933691;29;20058;-66
2024/03/30 05:58:03;;;;;;;26.02;3.17;;;;;;;;;;4934509;29;20399;-66
2024/03/30 06:00:30;;;;;;;29.27;3.55;;;;;;;;;;4948246;28;20416;-66
2024/03/30 06:02:57;;;;;;;28.48;3.05;;;;;;;;;;4935645;29;20051;-66
2024/03/30 06:05:24;;;;;;;25.42;3.53;;;;;;;;;;4934573;29;20044;-66
2024/03/30 06:07:50;;;;;;;26.35;2.92;;;;;;;;;;4937036;29;20050;-64
2024/03/30 06:10:16;;;;;;;31.30;3.35;;;;;;;;;;4934444;29;20039;-63
2024/03/30 06:12:42;;;;;;;29.52;3.65;;;;;;;;;;4936268;29;20480;-65
2024/03/30 06:15:08;;;;;;;29.65;2.97;;;;;;;;;;4934511;29;20058;-64
2024/03/30 06:17:36;;;;;;;23.52;3.17;;;;;;;;;;4935878;29;20052;-64
2024/03/30 06:20:05;;;;;;;30.90;3.28;;;;;;;;;;4934615;29;20467;-64
2024/03/30 06:22:32;;;;;;;27.08;2.70;;;;;;;;;;4937013;29;20052;-64
2024/03/30 06:24:58;;;;;;;26.23;2.70;;;;;;;;;;4937941;29;20051;-64
2024/03/30 06:27:25;;;;;;;31.85;3.25;;;;;;;;;;4931323;29;20077;-63
2024/03/30 06:29:51;;;;;;;29.65;4.32;;;;;;;;;;4932611;29;20046;-64
2024/03/30 06:32:17;;;;;;;38.10;3.28;;;;;;;;;;4937828;28;20040;-63
2024/03/30 06:34:43;;;;;;;32.25;3.30;;;;;;;;;;4936492;29;20073;-62
2024/03/30 06:37:09;;;;;;;35.50;3.97;;;;;;;;;;4935090;29;20062;-64
2024/03/30 06:45:05;;;;;;;44.47;4.10;;;;;;;;;;4934172;29;20056;-66
2024/03/30 06:47:31;;;;;;;25.17;3.45;;;;;;;;;;4937613;28;20058;-64
2024/03/30 06:49:57;;;;;;;38.38;3.92;;;;;;;;;;4933530;29;20647;-64
2024/03/30 06:52:23;;;;;;;38.60;3.70;;;;;;;;;;4937907;29;20043;-63
2024/03/30 06:54:49;;;;;;;35.45;3.85;;;;;;;;;;4937481;29;20545;-64
2024/03/30 06:57:15;;;;;;;31.20;3.35;;;;;;;;;;4941081;29;20078;-63
2024/03/30 06:59:42;;;;;;;40.30;3.83;;;;;;;;;;4934507;28;20074;-63
2024/03/30 07:02:08;;;;;;;32.67;4.65;;;;;;;;;;4933713;29;20051;-64
2024/03/30 07:04:34;;;;;;;29.27;3.42;;;;;;;;;;4935190;29;20051;-63
2024/03/30 07:07:03;;;;;;;37.83;4.97;;;;;;;;;;4936286;28;20147;-64
2024/03/30 07:09:30;;;;;;;34.72;3.80;;;;;;;;;;4935369;29;20059;-65
2024/03/30 07:11:57;;;;;;;34.83;4.47;;;;;;;;;;4933404;29;20416;-63
2024/03/30 07:14:24;;;;;;;26.95;3.42;;;;;;;;;;4932117;29;20432;-63
2024/03/30 07:16:52;;;;;;;31.00;4.40;;;;;;;;;;4938116;29;20036;-63
2024/03/30 07:19:18;;;;;;;33.97;4.43;;;;;;;;;;4934225;28;20048;-64
2024/03/30 07:21:44;;;;;;;43.13;4.10;;;;;;;;;;4933633;29;20047;-64
2024/03/30 07:24:11;;;;;;;36.90;3.85;;;;;;;;;;4935281;29;20043;-64
2024/03/30 07:26:37;;;;;;;28.75;3.28;;;;;;;;;;4936141;29;20056;-64
2024/03/30 07:29:04;;;;;;;30.80;4.00;;;;;;;;;;4935165;29;20028;-65
2024/03/30 07:31:31;;;;;;;35.53;4.15;;;;;;;;;;4935158;29;20031;-65
2024/03/30 07:33:57;;;;;;;34.42;4.15;;;;;;;;;;4934055;29;20035;-66
2024/03/30 07:36:23;;;;;;;38.17;3.70;;;;;;;;;;4934542;28;20059;-65
2024/03/30 07:38:49;;;;;;;31.90;4.80;;;;;;;;;;4935350;29;20047;-64
2024/03/30 07:41:16;;;;;;;33.33;3.25;;;;;;;;;;4936766;28;20055;-65
2024/03/30 07:43:42;;;;;;;39.85;3.75;;;;;;;;;;4935535;29;20052;-65
2024/03/30 07:46:08;;;;;;;38.55;5.07;;;;;;;;;;4933301;29;20380;-65
2024/03/30 07:48:34;;;;;;;34.55;3.40;;;;;;;;;;4929829;29;20043;-65
2024/03/30 07:51:01;;;;;;;40.45;4.55;;;;;;;;;;4936215;28;20441;-65
2024/03/30 07:53:27;;;;;;;33.08;3.92;;;;;;;;;;4935974;29;20031;-64
2024/03/30 07:55:54;;;;;;;41.42;3.97;;;;;;;;;;4937144;29;20028;-69
2024/03/30 07:58:20;;;;;;;36.38;4.75;;;;;;;;;;4937246;28;20506;-69
2024/03/30 08:00:46;;;;;;;39.92;3.90;;;;;;;;;;4939434;29;20054;-70
2024/03/30 08:03:12;;;;;;;28.13;3.25;;;;;;;;;;4933102;29;20043;-69
2024/03/30 08:05:38;;;;;;;22.55;3.38;;;;;;;;;;4937859;28;20035;-70
2024/03/30 08:08:05;;;;;;;32.08;3.28;;;;;;;;;;4936461;29;20035;-70
2024/03/30 08:10:31;;;;;;;20.88;3.28;;;;;;;;;;4934325;29;20058;-69
2024/03/30 08:12:57;;;;;;;40.88;3.90;;;;;;;;;;4935103;29;20074;-67
2024/03/30 08:15:23;;;;;;;33.60;3.42;;;;;;;;;;4946723;28;20400;-68
2024/03/30 08:17:50;;;;;;;34.67;4.25;;;;;;;;;;4954060;28;20044;-67
2024/03/30 08:20:16;;;;;;;36.95;3.97;;;;;;;;;;4942781;28;20068;-66
2024/03/30 08:22:43;;;;;;;36.47;3.45;;;;;;;;;;4934892;29;20047;-68
2024/03/30 08:25:09;;;;;;;37.00;3.65;;;;;;;;;;4934893;29;20043;-67
2024/03/30 08:27:35;;;;;;;36.88;4.20;;;;;;;;;;4934546;29;20071;-64
2024/03/30 08:30:03;;;;;;;35.50;4.45;;;;;;;;;;4928890;29;20058;-65
2024/03/30 08:32:30;;;;;;;33.80;5.70;;;;;;;;;;4931826;29;20031;-66
2024/03/30 08:34:56;;;;;;;39.50;4.07;;;;;;;;;;4932450;29;20035;-66
2024/03/30 08:37:23;;;;;;;36.05;3.85;;;;;;;;;;4931410;28;20054;-66
2024/03/30 08:39:49;;;;;;;25.50;4.68;;;;;;;;;;4930746;29;20051;-64
2024/03/30 08:42:15;;;;;;;34.55;4.70;;;;;;;;;;4929098;29;20039;-63
2024/03/30 08:44:41;;;;;;;36.58;4.15;;;;;;;;;;4932345;29;20396;-65
2024/03/30 08:47:07;;;;;;;30.75;4.68;;;;;;;;;;4932072;29;20074;-64
2024/03/30 08:49:35;;;;;;;36.42;4.72;;;;;;;;;;4929782;29;20408;-64
2024/03/30 08:52:01;;;;;;;38.78;4.82;;;;;;;;;;4934958;29;20047;-65
2024/03/30 08:54:27;;;;;;;36.50;4.13;;;;;;;;;;4934986;29;20059;-64
2024/03/30 08:56:53;;;;;;;32.40;3.65;;;;;;;;;;4935032;29;20403;-65
2024/03/30 08:59:19;;;;;;;37.70;3.92;;;;;;;;;;4929195;29;20046;-63
2024/03/30 09:01:45;;;;;;;28.98;3.20;;;;;;;;;;4929377;29;20039;-62
2024/03/30 09:04:11;;;;;;;40.22;4.07;;;;;;;;;;4946827;28;20036;-62
2024/03/30 09:06:37;;;;;;;38.42;3.95;;;;;;;;;;4931556;29;20051;-63
2024/03/30 09:09:04;;;;;;;34.72;4.20;;;;;;;;;;4935954;28;20062;-62
2024/03/30 09:11:30;;;;;;;42.45;3.63;;;;;;;;;;4945406;29;20044;-61
2024/03/30 09:13:56;;;;;;;35.10;4.38;;;;;;;;;;4931445;29;20040;-62
2024/03/30 09:16:22;;;;;;;34.42;3.53;;;;;;;;;;4933079;29;20043;-63
2024/03/30 09:18:48;;;;;;;36.55;3.83;;;;;;;;;;4934403;29;20044;-62
2024/03/30 09:21:14;;;;;;;34.53;4.18;;;;;;;;;;4931707;29;20043;-63
2024/03/30 09:23:42;;;;;;;29.90;3.78;;;;;;;;;;4932408;29;20047;-63
2024/03/30 09:26:08;;;;;;;36.53;4.40;;;;;;;;;;4931382;29;20047;-65
2024/03/30 09:28:34;;;;;;;49.50;5.10;;;;;;;;;;4931278;29;20039;-63
2024/03/30 09:31:00;;;;;;;27.30;4.10;;;;;;;;;;4930692;29;20503;-62
2024/03/30 09:33:26;;;;;;;32.10;4.28;;;;;;;;;;4932322;29;20031;-62
2024/03/30 09:35:55;;;;;;;44.13;3.72;;;;;;;;;;4946751;28;20054;-63
2024/03/30 09:38:21;;;;;;;33.10;4.28;;;;;;;;;;4948033;28;20415;-62
2024/03/30 09:40:53;;;;;;;35.40;3.60;;;;;;;;;;4932232;29;20051;-62
2024/03/30 09:43:20;;;;;;;32.80;4.80;;;;;;;;;;4929051;29;20075;-63
2024/03/30 09:45:48;;;;;;;25.73;3.97;;;;;;;;;;4930785;28;20058;-63
2024/03/30 09:48:16;;;;;;;28.07;3.30;;;;;;;;;;4931188;29;20132;-62
2024/03/30 09:50:43;;;;;;;30.83;3.72;;;;;;;;;;4929443;29;20055;-62
2024/03/30 09:53:11;;;;;;;31.27;4.38;;;;;;;;;;4928214;29;20039;-63
2024/03/30 09:55:39;;;;;;;31.48;4.22;;;;;;;;;;4930566;28;20066;-63
2024/03/30 09:58:06;;;;;;;35.97;3.97;;;;;;;;;;4931952;29;20074;-62
2024/03/30 10:00:32;;;;;;;32.20;4.40;;;;;;;;;;4929212;29;20612;-62
2024/03/30 10:02:58;;;;;;;30.85;3.67;;;;;;;;;;4932130;29;20039;-63
2024/03/30 10:05:25;;;;;;;32.80;4.00;;;;;;;;;;4931500;29;20036;-62
2024/03/30 10:08:02;;;;;;;34.90;3.78;;;;;;;;;;4931400;29;20070;-64
2024/03/30 10:10:29;;;;;;;28.88;2.92;;;;;;;;;;4932148;29;20047;-64
2024/03/30 10:13:04;;;;;;;25.85;3.72;;;;;;;;;;4933644;29;20055;-65
2024/03/30 10:15:35;;;;;;;25.73;3.00;;;;;;;;;;4928692;29;20055;-64
2024/03/30 10:18:01;;;;;;;47.28;3.85;;;;;;;;;;4928926;29;20040;-64
2024/03/30 10:20:28;;;;;;;36.22;4.53;;;;;;;;;;4929844;29;20039;-66
2024/03/30 10:22:55;;;;;;;32.90;4.18;;;;;;;;;;4933597;29;20467;-66
2024/03/30 10:25:22;;;;;;;33.03;3.65;;;;;;;;;;4929564;29;20070;-65
2024/03/30 10:27:48;;;;;;;28.40;3.88;;;;;;;;;;4931292;29;20047;-66
2024/03/30 10:30:15;;;;;;;36.15;4.25;;;;;;;;;;4928030;29;20051;-67
2024/03/30 10:32:44;;;;;;;35.78;4.05;;;;;;;;;;4930286;29;20048;-66
2024/03/30 10:35:11;;;;;;;40.10;3.90;;;;;;;;;;4931938;29;20054;-64
2024/03/30 10:37:37;;;;;;;43.30;3.72;;;;;;;;;;4948926;28;20365;-63
2024/03/30 10:40:06;;;;;;;28.10;3.63;;;;;;;;;;4934864;29;20054;-62
2024/03/30 10:42:33;;;;;;;33.03;3.88;;;;;;;;;;4935348;29;20051;-63
2024/03/30 10:45:01;;;;;;;32.47;3.60;;;;;;;;;;4933267;29;20050;-63
2024/03/30 10:47:32;;;;;;;33.38;4.38;;;;;;;;;;4932812;29;20062;-65
2024/03/30 10:49:59;;;;;;;42.55;4.70;;;;;;;;;;4935966;29;20051;-64
2024/03/30 10:52:25;;;;;;;38.03;4.07;;;;;;;;;;4932346;29;20039;-62
2024/03/30 10:54:52;;;;;;;37.08;4.53;;;;;;;;;;4933586;29;20054;-65
2024/03/30 10:57:18;;;;;;;39.72;3.70;;;;;;;;;;4947891;28;20519;-66
2024/03/30 10:59:46;;;;;;;38.40;4.38;;;;;;;;;;4932910;29;20044;-65
2024/03/30 11:02:17;;;;;;;30.58;4.30;;;;;;;;;;4931169;29;20487;-62
2024/03/30 11:04:44;;;;;;;27.58;4.03;;;;;;;;;;4933740;28;20050;-65
2024/03/30 11:07:13;;;;;;;29.40;3.17;;;;;;;;;;4952634;28;20054;-65
2024/03/30 11:09:41;;;;;;;26.83;2.75;;;;;;;;;;4931314;29;20040;-66
2024/03/30 11:12:12;;;;;;;37.92;4.30;;;;;;;;;;4932062;29;20036;-66
2024/03/30 11:14:38;;;;;;;32.67;3.70;;;;;;;;;;4931339;29;20385;-64
2024/03/30 11:17:12;;;;;;;34.15;3.20;;;;;;;;;;4936163;29;20046;-64
2024/03/30 11:19:45;;;;;;;30.50;3.38;;;;;;;;;;4927258;29;20044;-67
2024/03/30 11:22:29;;;;;;;39.00;3.22;;;;;;;;;;4936689;28;20052;-65
2024/03/30 11:24:59;;;;;;;33.42;3.38;;;;;;;;;;4931732;29;20050;-65
2024/03/30 11:27:32;;;;;;;38.05;3.60;;;;;;;;;;4932915;29;20066;-65
2024/03/30 11:30:04;;;;;;;28.60;3.58;;;;;;;;;;4931182;29;20039;-65
2024/03/30 11:32:35;;;;;;;39.65;4.30;;;;;;;;;;4929027;29;20040;-65
2024/03/30 11:35:14;;;;;;;28.95;3.50;;;;;;;;;;4931566;28;20048;-64
2024/03/30 11:37:42;;;;;;;26.38;3.28;;;;;;;;;;4929851;29;20059;-66
2024/03/30 11:40:47;;;;;;;30.07;3.37;;;;;;;;;;4932523;29;20047;-65
2024/03/30 11:43:37;;;;;;;21.88;2.28;;;;;;;;;;4934138;29;20039;-66
2024/03/30 11:46:04;;;;;;;25.10;2.90;;;;;;;;;;4937498;29;20067;-62
2024/03/30 11:48:31;;;;;;;28.90;3.28;;;;;;;;;;4939157;28;20124;-62
2024/03/30 11:50:57;;;;;;;39.90;3.38;;;;;;;;;;4949914;28;20491;-62
2024/03/30 11:53:24;;;;;;;28.38;3.97;;;;;;;;;;4934997;29;20352;-62
2024/03/30 11:55:53;;;;;;;32.45;3.22;;;;;;;;;;4947805;28;20047;-65
2024/03/30 11:58:23;;;;;;;24.60;2.88;;;;;;;;;;4931324;29;20047;-63
2024/03/30 12:00:55;;;;;;;28.05;3.13;;;;;;;;;;4934402;28;20580;-64
2024/03/30 12:03:24;;;;;;;27.55;3.33;;;;;;;;;;4934083;29;20051;-63
2024/03/30 12:05:52;;;;;;;33.90;2.97;;;;;;;;;;4937592;29;20035;-63
2024/03/30 12:08:28;;;;;;;29.17;4.95;;;;;;;;;;4933610;28;20055;-63
2024/03/30 12:10:56;;;;;;;29.35;3.22;;;;;;;;;;4929573;29;20066;-65
2024/03/30 12:13:27;;;;;;;23.83;3.08;;;;;;;;;;4933909;29;20071;-64
2024/03/30 12:15:55;;;;;;;30.52;3.47;;;;;;;;;;4940804;29;20468;-64
2024/03/30 12:18:23;;;;;;;29.58;3.22;;;;;;;;;;4936311;29;20036;-64
2024/03/30 12:20:50;;;;;;;24.80;3.17;;;;;;;;;;4934695;29;20035;-65
2024/03/30 12:23:21;;;;;;;24.05;3.00;;;;;;;;;;4948804;28;20063;-65
2024/03/30 12:25:57;;;;;;;30.30;3.95;;;;;;;;;;4950044;28;20098;-65
2024/03/30 12:28:23;;;;;;;23.90;2.53;;;;;;;;;;4931601;29;20051;-64
2024/03/30 12:30:52;;;;;;;29.80;3.10;;;;;;;;;;4933013;28;20052;-63
2024/03/30 12:33:19;;;;;;;;;;;;;;;;;;4935669;29;20048;-63
2024/03/30 12:35:45;;;;;;;36.90;5.45;;;;;;;;;;4935037;29;19934;-62
2024/03/30 12:38:13;;;;;;;34.53;6.40;;;;;;;;;;4935244;29;20035;-63
2024/03/30 12:40:40;;;;;;;32.85;5.03;;;;;;;;;;4946132;28;20054;-63
2024/03/30 12:43:06;;;;;;;24.85;3.45;;;;;;;;;;4935454;29;20042;-64
2024/03/30 12:45:32;;;;;;;25.77;3.50;;;;;;;;;;4933460;29;20040;-63
2024/03/30 12:47:58;;;;;;;26.85;4.07;;;;;;;;;;4937743;29;20055;-64
2024/03/30 12:50:26;;;;;;;27.58;4.00;;;;;;;;;;4940576;29;20046;-63
2024/03/30 12:52:56;;;;;;;27.80;3.97;;;;;;;;;;4930517;29;20423;-63
2024/03/30 12:55:22;;;;;;;29.20;3.92;;;;;;;;;;4931551;29;20043;-64
2024/03/30 12:57:48;;;;;;;22.10;3.40;;;;;;;;;;4933490;29;20051;-64
2024/03/30 13:00:16;;;;;;;22.60;3.65;;;;;;;;;;4932423;29;20770;-64
2024/03/30 13:02:51;;;;;;;25.27;3.45;;;;;;;;;;4932563;29;20043;-63
2024/03/30 13:05:17;;;;;;;26.00;3.50;;;;;;;;;;4932433;29;20044;-63
2024/03/30 13:07:43;;;;;;;21.60;3.63;;;;;;;;;;4932169;29;20038;-63
2024/03/30 13:10:09;;;;;;;26.23;5.80;;;;;;;;;;4930947;29;20051;-64
2024/03/30 13:12:35;;;;;;;24.52;4.57;;;;;;;;;;4933758;29;20066;-63
2024/03/30 13:15:02;;;;;;;22.48;3.63;;;;;;;;;;4931168;29;20036;-63
2024/03/30 13:17:29;;;;;;;36.05;5.15;;;;;;;;;;4935582;28;20629;-63
2024/03/30 13:19:59;;;;;;;29.02;4.38;;;;;;;;;;4932366;28;20539;-63
2024/03/30 13:22:25;;;;;;;26.42;4.63;;;;;;;;;;4943342;28;20042;-62
2024/03/30 13:24:51;;;;;;;26.10;4.97;;;;;;;;;;4932344;29;20051;-62
2024/03/30 13:27:18;;;;;;;37.97;6.35;;;;;;;;;;4933332;28;20043;-62
2024/03/30 13:29:45;;;;;;;31.65;7.85;;;;;;;;;;4930551;29;20039;-63
2024/03/30 13:32:11;;;;;;;39.15;9.93;;;;;;;;;;4932573;29;20043;-64
2024/03/30 13:34:39;;;;;;;42.88;9.18;;;;;;;;;;4930404;29;20385;-64
2024/03/30 13:37:05;;;;;;;31.08;7.13;;;;;;;;;;4934375;29;20051;-64
2024/03/30 13:39:32;;;;;;;27.30;5.95;;;;;;;;;;4934208;29;20051;-64
2024/03/30 13:41:58;;;;;;;33.05;5.22;;;;;;;;;;4932572;29;20051;-64
2024/03/30 13:44:24;;;;;;;30.45;5.72;;;;;;;;;;4935953;29;20043;-63
2024/03/30 13:46:50;;;;;;;36.00;6.20;;;;;;;;;;4935878;29;20040;-64
2024/03/30 13:49:16;;;;;;;33.03;5.20;;;;;;;;;;4934847;29;20050;-62
2024/03/30 13:51:42;;;;;;;33.78;4.97;;;;;;;;;;4947197;29;20495;-64
2024/03/30 13:54:09;;;;;;;42.97;4.55;;;;;;;;;;4934220;29;20411;-64
2024/03/30 13:56:35;;;;;;;31.23;5.07;;;;;;;;;;4931713;29;20050;-64
2024/03/30 13:59:01;;;;;;;39.13;5.45;;;;;;;;;;4947004;29;20487;-64
2024/03/30 14:01:27;;;;;;;32.58;3.95;;;;;;;;;;4930305;29;20042;-64
2024/03/30 14:03:53;;;;;;;35.05;5.38;;;;;;;;;;4931439;29;20062;-63
2024/03/30 14:06:19;;;;;;;31.80;4.10;;;;;;;;;;4932969;29;20048;-64
2024/03/30 14:08:45;;;;;;;32.47;4.53;;;;;;;;;;4932876;29;20444;-63
2024/03/30 14:11:11;;;;;;;23.30;3.53;;;;;;;;;;4936937;29;20043;-64
2024/03/30 14:13:37;;;;;;;34.05;4.85;;;;;;;;;;4936498;29;20046;-64
2024/03/30 14:16:03;;;;;;;31.35;5.13;;;;;;;;;;4938990;29;20038;-64
2024/03/30 14:18:29;;;;;;;31.45;2.90;;;;;;;;;;4928711;29;20047;-66
2024/03/30 14:20:56;;;;;;;19.58;2.53;;;;;;;;;;4933770;29;20428;-65
2024/03/30 14:23:22;;;;;;;23.77;3.47;;;;;;;;;;4935604;29;20039;-66
2024/03/30 14:25:48;;;;;;;25.02;2.75;;;;;;;;;;4935335;28;20048;-65
2024/03/30 14:28:14;;;;;;;26.27;3.40;;;;;;;;;;4947192;28;20082;-65
2024/03/30 14:30:40;;;;;;;26.30;3.97;;;;;;;;;;4932401;29;20074;-67
2024/03/30 14:33:06;;;;;;;30.60;3.72;;;;;;;;;;4934265;29;20056;-65
2024/03/30 14:35:32;;;;;;;24.25;3.08;;;;;;;;;;4935146;29;20384;-65
2024/03/30 14:37:58;;;;;;;32.13;3.50;;;;;;;;;;4935070;28;20454;-65